Terminal Aerodrome Forecast
Issued by NWS Bismarck, ND

Home | Current Version | Previous Version | Graphics & Text | Print | Product List | Glossary On
Versions: 1 2 3 4 5 6 7 8 9 10 11 12 13 14 15
000
FTUS43 KBIS 301721
TAFISN
TAF
KISN 301721Z 3018/0118 29014KT P6SM VCSH SCT070 BKN120
     FM301900 30013G22KT P6SM BKN120
     FM010100 24007KT P6SM SKC=

USA.gov is the U.S. government's official web portal to all federal, state and local government web resources and services.